createdAt,value
2023-05-23T00:01:39.922Z,67.18
2023-05-23T00:04:06.832Z,67.29
2023-05-23T00:06:34.407Z,67.80
2023-05-23T00:09:01.132Z,68.11
2023-05-23T00:11:29.118Z,67.80
2023-05-23T00:13:57.512Z,66.94
2023-05-23T00:16:24.096Z,67.42
2023-05-23T00:18:51.848Z,69.70
2023-05-23T00:21:18.590Z,70.67
2023-05-23T00:23:45.104Z,70.42
2023-05-23T00:26:11.669Z,69.13
2023-05-23T00:28:38.700Z,71.49
2023-05-23T00:31:05.448Z,75.93
2023-05-23T00:33:33.309Z,76.71
2023-05-23T00:36:02.726Z,81.75
2023-05-23T00:38:29.735Z,84.49
2023-05-23T00:40:56.296Z,86.65
2023-05-23T00:43:22.901Z,87.42
2023-05-23T00:45:49.960Z,89.59
2023-05-23T00:48:17.027Z,92.76
2023-05-23T00:50:43.765Z,93.30
2023-05-23T00:53:10.337Z,93.40
2023-05-23T00:55:37.341Z,93.04
2023-05-23T00:58:03.931Z,94.41
2023-05-23T01:00:30.855Z,93.96
2023-05-23T01:10:23.347Z,98.72
2023-05-23T01:13:17.696Z,99.74
2023-05-23T01:15:55.747Z,100.00
2023-05-23T01:18:26.835Z,99.71
2023-05-23T01:20:57.021Z,99.33
2023-05-23T01:23:47.306Z,98.67
2023-05-23T01:27:06.008Z,99.06
2023-05-23T01:29:37.490Z,100.00
2023-05-23T01:32:07.312Z,100.00
2023-05-23T01:34:36.693Z,100.00
2023-05-23T01:37:08.670Z,100.00
2023-05-23T01:39:35.304Z,99.89
2023-05-23T01:42:02.043Z,100.00
2023-05-23T01:44:29.048Z,99.67
2023-05-23T01:46:55.777Z,100.00
2023-05-23T01:49:24.029Z,100.00
2023-05-23T01:51:50.833Z,100.00
2023-05-23T01:54:19.789Z,100.00
2023-05-23T01:56:47.575Z,100.00
2023-05-23T01:59:14.111Z,100.00
2023-05-23T02:01:41.538Z,100.00
2023-05-23T02:04:08.214Z,100.00
2023-05-23T02:06:34.818Z,100.00
2023-05-23T02:09:01.592Z,100.00
2023-05-23T02:11:28.107Z,100.00
2023-05-23T02:13:54.633Z,100.00
2023-05-23T02:16:21.753Z,100.00
2023-05-23T02:18:49.293Z,100.00
2023-05-23T02:21:15.961Z,100.00
2023-05-23T02:23:42.613Z,100.00
2023-05-23T02:26:09.212Z,100.00
2023-05-23T02:28:35.834Z,100.00
2023-05-23T02:31:02.722Z,100.00
2023-05-23T02:33:29.336Z,100.00
2023-05-23T02:35:55.882Z,100.00
2023-05-23T02:38:22.537Z,100.00
2023-05-23T02:40:50.693Z,100.00
2023-05-23T02:43:17.331Z,100.00
2023-05-23T02:45:44.038Z,100.00
2023-05-23T02:48:12.079Z,100.00
2023-05-23T02:50:38.837Z,100.00
2023-05-23T02:53:05.393Z,100.00
2023-05-23T02:55:32.045Z,100.00
2023-05-23T02:58:01.617Z,100.00
2023-05-23T03:00:28.176Z,100.00
2023-05-23T03:02:54.790Z,100.00
2023-05-23T03:05:21.487Z,100.00
2023-05-23T03:07:48.030Z,100.00
2023-05-23T03:10:14.603Z,100.00
2023-05-23T03:12:41.233Z,100.00
2023-05-23T03:15:08.232Z,100.00
2023-05-23T03:17:34.820Z,100.00
2023-05-23T03:20:01.438Z,100.00
2023-05-23T03:22:27.997Z,100.00
2023-05-23T03:24:54.578Z,100.00
2023-05-23T03:27:21.192Z,100.00
2023-05-23T03:29:48.342Z,100.00
2023-05-23T03:32:15.033Z,100.00
2023-05-23T03:34:41.686Z,100.00
2023-05-23T03:37:08.307Z,100.00
2023-05-23T03:39:34.871Z,100.00
2023-05-23T03:42:01.446Z,100.00
2023-05-23T03:44:28.017Z,100.00
2023-05-23T03:46:54.642Z,100.00
2023-05-23T03:49:21.420Z,100.00
2023-05-23T03:51:47.988Z,100.00
2023-05-23T03:54:14.609Z,100.00
2023-05-23T03:56:41.172Z,100.00
2023-05-23T03:59:07.746Z,100.00
2023-05-23T04:01:34.326Z,100.00
2023-05-23T04:04:01.031Z,100.00
2023-05-23T04:06:30.110Z,100.00
2023-05-23T04:08:56.923Z,100.00
2023-05-23T04:11:23.788Z,100.00
2023-05-23T04:13:52.061Z,98.67
2023-05-23T04:16:18.728Z,97.36
2023-05-23T04:18:47.260Z,96.73
2023-05-23T04:21:14.034Z,98.62
2023-05-23T04:23:40.634Z,96.16
2023-05-23T04:26:07.299Z,94.39
2023-05-23T04:28:34.765Z,95.60
2023-05-23T04:31:03.218Z,93.66
2023-05-23T04:33:30.635Z,93.34
2023-05-23T04:35:57.454Z,92.53
2023-05-23T04:38:25.196Z,90.43
2023-05-23T04:40:54.624Z,90.00
2023-05-23T04:43:21.936Z,90.32
2023-05-23T04:45:49.983Z,89.60
2023-05-23T04:48:17.329Z,89.09
2023-05-23T04:50:44.468Z,89.92
2023-05-23T04:53:11.021Z,92.49
2023-05-23T04:55:37.663Z,94.00
2023-05-23T04:58:04.490Z,95.54
2023-05-23T05:00:31.046Z,95.15
2023-05-23T05:02:57.694Z,96.15
2023-05-23T05:05:24.297Z,94.09
2023-05-23T05:07:51.199Z,94.30
2023-05-23T05:10:17.969Z,93.23
2023-05-23T05:12:49.604Z,93.60
2023-05-23T05:15:17.548Z,92.62
2023-05-23T05:17:44.912Z,92.79
2023-05-23T05:20:12.285Z,87.29
2023-05-23T05:22:43.024Z,84.97
2023-05-23T05:25:10.887Z,84.20
2023-05-23T05:27:40.565Z,83.67
2023-05-23T05:30:08.891Z,83.96
2023-05-23T05:32:35.634Z,83.31
2023-05-23T05:35:03.334Z,83.82
2023-05-23T05:37:30.185Z,82.97
2023-05-23T05:39:56.937Z,82.45
2023-05-23T05:42:23.567Z,81.99
2023-05-23T05:44:50.303Z,83.02
2023-05-23T05:47:16.921Z,83.50
2023-05-23T05:49:43.473Z,83.39
2023-05-23T05:52:10.917Z,83.22
2023-05-23T05:54:37.721Z,83.66
2023-05-23T05:57:04.637Z,83.00
2023-05-23T05:59:32.648Z,83.12
2023-05-23T06:01:59.429Z,84.71
2023-05-23T06:04:26.222Z,82.35
2023-05-23T06:06:52.911Z,81.59
2023-05-23T06:09:19.699Z,81.15
2023-05-23T06:11:46.567Z,79.89
2023-05-23T06:14:13.175Z,81.42
2023-05-23T06:16:40.377Z,82.01
2023-05-23T06:19:08.450Z,81.33
2023-05-23T06:21:35.220Z,80.65
2023-05-23T06:24:01.816Z,82.60
2023-05-23T06:26:28.384Z,82.12
2023-05-23T06:28:54.978Z,81.64
2023-05-23T06:31:21.576Z,81.93
2023-05-23T06:33:48.364Z,81.20
2023-05-23T06:36:15.026Z,79.71
2023-05-23T06:38:41.567Z,80.90
2023-05-23T06:41:08.161Z,81.27
2023-05-23T06:43:34.710Z,81.51
2023-05-23T06:46:01.648Z,81.07
2023-05-23T06:48:28.305Z,80.84
2023-05-23T06:50:55.085Z,80.18
2023-05-23T06:53:21.677Z,80.22
2023-05-23T06:55:48.208Z,78.88
2023-05-23T06:58:14.911Z,77.84
2023-05-23T07:00:41.714Z,76.10
2023-05-23T07:03:08.521Z,76.36
2023-05-23T07:05:38.600Z,74.73
2023-05-23T07:08:07.642Z,75.59
2023-05-23T07:10:35.329Z,74.30
2023-05-23T07:13:02.161Z,74.42
2023-05-23T07:15:28.701Z,73.82
2023-05-23T07:17:56.012Z,74.36
2023-05-23T07:20:22.728Z,72.72
2023-05-23T07:22:51.570Z,72.07
2023-05-23T07:25:18.993Z,71.91
2023-05-23T07:27:45.620Z,71.53
2023-05-23T07:30:12.405Z,71.72
2023-05-23T07:32:39.093Z,71.43
2023-05-23T07:35:06.598Z,69.33
2023-05-23T07:37:33.397Z,70.22
2023-05-23T07:40:01.440Z,71.46
2023-05-23T07:42:28.027Z,72.30
2023-05-23T07:44:54.544Z,72.06
2023-05-23T07:47:21.129Z,72.18
2023-05-23T07:49:47.692Z,72.88
2023-05-23T07:52:14.329Z,72.36
2023-05-23T07:54:40.913Z,72.18
2023-05-23T07:57:07.690Z,73.08
2023-05-23T07:59:34.256Z,72.88
2023-05-23T08:02:00.852Z,72.44
2023-05-23T08:04:27.474Z,72.84
2023-05-23T08:07:05.182Z,71.09
2023-05-23T08:09:32.565Z,69.48
2023-05-23T08:11:59.229Z,68.71
2023-05-23T08:14:42.242Z,69.37
2023-05-23T08:17:14.408Z,69.74
2023-05-23T08:19:42.073Z,70.21
2023-05-23T08:22:08.747Z,68.16
2023-05-23T08:24:35.421Z,67.45
2023-05-23T08:27:02.069Z,67.92
2023-05-23T08:29:28.725Z,67.82
2023-05-23T08:31:55.303Z,67.82
2023-05-23T08:34:21.971Z,69.38
2023-05-23T08:36:48.528Z,68.32
2023-05-23T08:39:15.088Z,67.37
2023-05-23T08:41:41.661Z,66.31
2023-05-23T08:44:08.274Z,66.52
2023-05-23T08:46:41.133Z,65.46
2023-05-23T08:49:08.459Z,65.87
2023-05-23T08:51:37.937Z,67.07
2023-05-23T08:54:06.256Z,67.41
2023-05-23T08:56:33.045Z,67.16
2023-05-23T08:58:59.691Z,67.83
2023-05-23T09:01:26.563Z,67.66
2023-05-23T09:03:53.325Z,67.95
2023-05-23T09:06:21.946Z,68.64
2023-05-23T09:08:48.587Z,68.74
2023-05-23T09:11:15.532Z,67.29
2023-05-23T09:13:42.133Z,68.06
2023-05-23T09:16:12.646Z,68.09
2023-05-23T09:18:44.208Z,69.32
2023-05-23T09:21:12.863Z,70.26
2023-05-23T09:23:41.582Z,71.30
2023-05-23T09:26:13.441Z,70.70
2023-05-23T09:28:43.468Z,71.66
2023-05-23T09:31:13.430Z,71.96
2023-05-23T09:33:42.922Z,73.37
2023-05-23T09:36:09.810Z,74.24
2023-05-23T09:38:41.061Z,75.26
2023-05-23T09:41:08.166Z,75.48
2023-05-23T09:43:34.811Z,75.42
2023-05-23T09:46:07.708Z,74.30
2023-05-23T09:48:34.342Z,74.28
2023-05-23T09:51:05.062Z,73.75
2023-05-23T09:53:32.290Z,73.50
2023-05-23T09:56:11.577Z,74.88
2023-05-23T09:58:39.159Z,75.79
2023-05-23T10:01:10.142Z,76.14
2023-05-23T10:03:48.734Z,74.28
2023-05-23T10:06:42.954Z,74.64
2023-05-23T10:09:15.432Z,72.92
2023-05-23T10:12:20.606Z,72.39
2023-05-23T10:14:54.683Z,71.02
2023-05-23T10:17:33.122Z,68.73
2023-05-23T10:20:12.531Z,68.28
2023-05-23T10:22:40.294Z,67.86
2023-05-23T10:25:08.579Z,66.52
2023-05-23T10:27:35.539Z,65.86
2023-05-23T10:30:02.973Z,65.59
2023-05-23T10:32:31.043Z,64.63
2023-05-23T10:35:36.555Z,64.38
2023-05-23T10:38:21.919Z,63.94
2023-05-23T10:41:03.573Z,64.93
2023-05-23T10:43:53.517Z,67.03
2023-05-23T10:46:24.107Z,67.86
2023-05-23T10:48:57.339Z,67.00
2023-05-23T10:51:24.923Z,65.94
2023-05-23T10:53:54.729Z,66.76
2023-05-23T10:56:23.491Z,65.96
2023-05-23T10:59:00.439Z,66.07
2023-05-23T11:01:27.364Z,65.41
2023-05-23T11:03:55.903Z,64.93
2023-05-23T11:06:39.071Z,64.60
2023-05-23T11:09:19.764Z,64.70
2023-05-23T11:11:53.303Z,65.85
2023-05-23T11:14:45.899Z,65.48
2023-05-23T11:17:12.610Z,64.91
2023-05-23T11:19:39.730Z,64.36
2023-05-23T11:22:09.922Z,64.55
2023-05-23T11:24:53.149Z,64.09
2023-05-23T11:27:39.768Z,64.36
2023-05-23T11:30:13.997Z,64.75
2023-05-23T11:32:41.936Z,65.88
2023-05-23T11:35:10.973Z,65.09
2023-05-23T11:37:40.887Z,65.14
2023-05-23T11:40:28.434Z,65.64
2023-05-23T11:42:55.190Z,65.78
2023-05-23T11:45:25.964Z,65.65
2023-05-23T11:47:52.976Z,65.93
2023-05-23T11:50:24.530Z,65.00
2023-05-23T11:52:51.939Z,64.85
2023-05-23T11:55:22.746Z,65.53
2023-05-23T11:57:51.620Z,63.60
2023-05-23T12:00:19.299Z,62.53
2023-05-23T12:02:48.776Z,61.79
2023-05-23T12:05:15.704Z,60.71
2023-05-23T12:07:42.994Z,60.83
2023-05-23T12:10:11.221Z,61.12
2023-05-23T12:12:42.484Z,59.45
2023-05-23T12:15:10.401Z,58.57
2023-05-23T12:17:38.333Z,58.77
2023-05-23T12:20:06.769Z,59.84
2023-05-23T12:22:33.377Z,60.02
2023-05-23T12:25:00.228Z,58.53
2023-05-23T12:27:32.444Z,59.06
2023-05-23T12:30:13.920Z,59.53
2023-05-23T12:32:41.997Z,59.54
2023-05-23T12:35:14.359Z,60.33
2023-05-23T12:37:43.036Z,61.02
2023-05-23T12:40:14.692Z,62.57
2023-05-23T12:42:54.788Z,63.65
2023-05-23T12:45:31.585Z,65.06
2023-05-23T12:47:58.355Z,65.74
2023-05-23T12:50:25.075Z,64.48
2023-05-23T12:52:52.339Z,64.40
2023-05-23T12:55:19.044Z,64.49
2023-05-23T12:57:45.645Z,64.88
2023-05-23T13:00:12.752Z,65.75
2023-05-23T13:02:39.963Z,67.31
2023-05-23T13:05:07.343Z,68.16
2023-05-23T13:07:34.087Z,69.31
2023-05-23T13:10:01.431Z,69.91
2023-05-23T13:12:28.790Z,70.86
2023-05-23T13:14:55.386Z,71.76
2023-05-23T13:17:22.066Z,72.47
2023-05-23T13:19:48.708Z,70.48
2023-05-23T13:22:15.437Z,69.96
2023-05-23T13:24:43.635Z,69.82
2023-05-23T13:27:10.705Z,70.30
2023-05-23T13:29:37.307Z,70.44
2023-05-23T13:32:04.025Z,71.80
2023-05-23T13:34:30.679Z,73.19
2023-05-23T13:36:57.221Z,74.84
2023-05-23T13:39:23.838Z,77.65
2023-05-23T13:41:50.869Z,78.99
2023-05-23T13:44:17.621Z,78.75
2023-05-23T13:46:44.394Z,78.49
2023-05-23T13:49:11.019Z,77.93
2023-05-23T13:51:37.777Z,78.39
2023-05-23T13:54:04.890Z,77.88
2023-05-23T13:56:32.112Z,79.35
2023-05-23T13:58:59.678Z,78.82
2023-05-23T14:01:26.391Z,80.59
2023-05-23T14:03:53.421Z,80.07
2023-05-23T14:06:20.146Z,78.96
2023-05-23T14:08:46.698Z,79.40
2023-05-23T14:11:13.300Z,78.48
2023-05-23T14:13:39.867Z,78.27
2023-05-23T14:16:06.656Z,78.60
2023-05-23T14:18:33.236Z,78.18
2023-05-23T14:20:59.793Z,78.23
2023-05-23T14:23:26.411Z,77.11
2023-05-23T14:25:52.973Z,75.15
2023-05-23T14:28:19.601Z,76.10
2023-05-23T14:30:46.340Z,75.52
2023-05-23T14:33:12.991Z,75.57
2023-05-23T14:35:39.999Z,76.62
2023-05-23T14:38:06.716Z,76.32
2023-05-23T14:40:33.321Z,75.28
2023-05-23T14:42:59.886Z,75.63
2023-05-23T14:45:26.592Z,76.33
2023-05-23T14:47:53.296Z,76.32
2023-05-23T14:50:19.935Z,77.45
2023-05-23T14:52:46.490Z,80.69
2023-05-23T14:55:13.061Z,79.82
2023-05-23T14:57:39.693Z,79.52
2023-05-23T15:00:08.041Z,79.56
2023-05-23T15:02:35.014Z,78.25
2023-05-23T15:05:01.813Z,76.67
2023-05-23T15:07:28.463Z,77.16
2023-05-23T15:09:55.167Z,76.66
2023-05-23T15:12:22.143Z,76.08
2023-05-23T15:14:48.733Z,76.88
2023-05-23T15:17:20.382Z,77.81
2023-05-23T15:19:49.688Z,77.97
2023-05-23T15:22:34.110Z,78.36
2023-05-23T15:25:03.687Z,79.06
2023-05-23T15:27:30.300Z,78.31
2023-05-23T15:29:56.872Z,78.13
2023-05-23T15:32:24.726Z,77.78
2023-05-23T15:34:51.587Z,77.40
2023-05-23T15:37:18.229Z,77.03
2023-05-23T15:39:44.918Z,77.50
2023-05-23T15:42:11.472Z,78.11
2023-05-23T15:44:38.211Z,78.77
2023-05-23T15:47:05.221Z,78.58
2023-05-23T15:49:31.785Z,78.75
2023-05-23T15:51:58.326Z,81.39
2023-05-23T15:54:24.981Z,82.52
2023-05-23T15:56:51.657Z,81.33
2023-05-23T15:59:18.226Z,80.74
2023-05-23T16:01:44.883Z,80.25
2023-05-23T16:04:11.757Z,80.62
2023-05-23T16:06:39.423Z,80.80
2023-05-23T16:09:06.241Z,80.85
2023-05-23T16:11:32.863Z,82.29
2023-05-23T16:13:59.492Z,85.14
2023-05-23T16:16:26.139Z,87.88
2023-05-23T16:18:53.323Z,87.88
2023-05-23T16:21:20.951Z,88.77
2023-05-23T16:23:48.749Z,89.81
2023-05-23T16:26:16.800Z,90.92
2023-05-23T16:28:43.716Z,91.95
2023-05-23T16:31:16.738Z,93.50
2023-05-23T16:33:44.521Z,93.94
2023-05-23T16:36:11.122Z,95.05
2023-05-23T16:38:37.768Z,94.30
2023-05-23T16:41:04.437Z,95.63
2023-05-23T16:43:31.035Z,95.55
2023-05-23T16:45:57.750Z,94.45
2023-05-23T16:48:24.391Z,93.78
2023-05-23T16:50:51.093Z,95.02
2023-05-23T16:53:17.659Z,94.86
2023-05-23T16:55:46.029Z,94.33
2023-05-23T16:58:12.602Z,95.34
2023-05-23T17:00:39.637Z,94.86
2023-05-23T17:03:06.272Z,96.41
2023-05-23T17:05:33.671Z,94.37
2023-05-23T17:08:00.474Z,93.92
2023-05-23T17:10:27.043Z,93.42
2023-05-23T17:12:53.697Z,94.09
2023-05-23T17:15:20.373Z,93.68
2023-05-23T17:17:47.623Z,94.55
2023-05-23T17:20:14.276Z,94.56
2023-05-23T17:22:41.793Z,95.67
2023-05-23T17:25:08.913Z,95.21
2023-05-23T17:27:35.528Z,95.45
2023-05-23T17:30:04.981Z,96.50
2023-05-23T17:32:31.770Z,96.27
2023-05-23T17:34:58.563Z,96.46
2023-05-23T17:37:26.427Z,95.75
2023-05-23T17:39:55.986Z,97.03
2023-05-23T17:42:24.044Z,96.13
2023-05-23T17:44:50.696Z,96.37
2023-05-23T17:47:18.460Z,96.53
2023-05-23T17:49:45.211Z,97.85
2023-05-23T17:52:14.800Z,96.94
2023-05-23T17:54:42.420Z,96.84
2023-05-23T17:57:09.117Z,96.51
2023-05-23T17:59:36.350Z,95.75
2023-05-23T18:02:04.799Z,96.86
2023-05-23T18:04:31.659Z,95.69
2023-05-23T18:06:58.343Z,95.88
2023-05-23T18:09:25.019Z,96.00
2023-05-23T18:11:51.874Z,96.64
2023-05-23T18:14:18.554Z,96.64
2023-05-23T18:16:45.201Z,96.44
2023-05-23T18:19:11.920Z,96.04
2023-05-23T18:21:38.613Z,96.64
2023-05-23T18:24:05.300Z,97.52
2023-05-23T18:26:31.937Z,97.78
2023-05-23T18:29:00.916Z,97.34
2023-05-23T18:31:27.477Z,97.27
2023-05-23T18:33:54.129Z,97.89
2023-05-23T18:36:20.882Z,98.11
2023-05-23T18:38:47.484Z,98.27
2023-05-23T18:41:15.151Z,97.80
2023-05-23T18:43:41.773Z,98.52
2023-05-23T18:46:08.492Z,97.92
2023-05-23T18:48:35.962Z,97.86
2023-05-23T18:51:02.902Z,98.67
2023-05-23T18:53:29.512Z,98.40
2023-05-23T18:55:56.077Z,98.62
2023-05-23T18:58:22.628Z,98.73
2023-05-23T19:00:49.232Z,98.34
2023-05-23T19:03:16.937Z,98.17
2023-05-23T19:05:43.839Z,98.05
2023-05-23T19:08:10.666Z,97.50
2023-05-23T19:10:37.241Z,98.11
2023-05-23T19:13:03.995Z,98.18
2023-05-23T19:15:30.640Z,97.61
2023-05-23T19:17:57.352Z,97.83
2023-05-23T19:20:23.930Z,97.65
2023-05-23T19:22:52.342Z,96.90
2023-05-23T19:25:20.441Z,97.33
2023-05-23T19:27:47.094Z,97.39
2023-05-23T19:30:13.729Z,97.18
2023-05-23T19:32:40.618Z,97.73
2023-05-23T19:35:08.279Z,97.69
2023-05-23T19:37:35.006Z,97.15
2023-05-23T19:40:01.931Z,96.13
2023-05-23T19:42:28.519Z,96.43
2023-05-23T19:44:55.174Z,95.95
2023-05-23T19:47:21.814Z,96.61
2023-05-23T19:49:48.521Z,94.72
2023-05-23T19:52:15.155Z,94.83
2023-05-23T19:54:41.931Z,93.83
2023-05-23T19:57:08.700Z,93.29
2023-05-23T19:59:35.379Z,94.31
2023-05-23T20:02:01.953Z,93.67
2023-05-23T20:04:28.522Z,92.45
2023-05-23T20:06:56.083Z,91.84
2023-05-23T20:09:23.086Z,91.14
2023-05-23T20:11:49.652Z,91.63
2023-05-23T20:14:16.469Z,89.75
2023-05-23T20:16:43.208Z,90.04
2023-05-23T20:19:10.093Z,91.13
2023-05-23T20:21:36.842Z,90.64
2023-05-23T20:24:03.447Z,91.44
2023-05-23T20:26:30.021Z,92.24
2023-05-23T20:28:56.632Z,92.74
2023-05-23T20:31:23.208Z,91.74
2023-05-23T20:33:49.882Z,91.87
2023-05-23T20:36:19.573Z,92.40
2023-05-23T20:38:46.769Z,92.14
2023-05-23T20:41:14.224Z,92.71
2023-05-23T20:43:41.050Z,90.77
2023-05-23T20:46:11.665Z,90.14
2023-05-23T20:48:38.721Z,91.56
2023-05-23T20:51:05.939Z,90.10
2023-05-23T20:53:33.508Z,90.02
2023-05-23T20:56:00.737Z,89.60
2023-05-23T20:58:27.488Z,89.82
2023-05-23T21:00:54.380Z,90.26
2023-05-23T21:03:21.195Z,90.88
2023-05-23T21:05:48.086Z,90.40
2023-05-23T21:08:14.642Z,90.07
2023-05-23T21:10:41.660Z,89.87
2023-05-23T21:13:08.479Z,90.06
2023-05-23T21:15:35.101Z,89.45
2023-05-23T21:18:01.727Z,89.09
2023-05-23T21:20:29.200Z,89.48
2023-05-23T21:22:55.815Z,89.46
2023-05-23T21:25:22.353Z,88.61
2023-05-23T21:27:48.980Z,88.41
2023-05-23T21:30:15.725Z,87.22
2023-05-23T21:32:43.550Z,87.76
2023-05-23T21:35:10.425Z,87.39
2023-05-23T21:37:37.048Z,87.61
2023-05-23T21:40:03.945Z,87.04
2023-05-23T21:42:31.071Z,87.01
2023-05-23T21:44:57.743Z,88.12
2023-05-23T21:47:25.137Z,87.42
2023-05-23T21:49:51.928Z,86.97
2023-05-23T21:52:18.607Z,86.99
2023-05-23T21:54:47.086Z,86.68
2023-05-23T21:57:13.786Z,86.83
2023-05-23T21:59:41.512Z,86.68
2023-05-23T22:02:08.164Z,86.81
2023-05-23T22:04:34.759Z,87.12
2023-05-23T22:07:01.396Z,86.72
2023-05-23T22:09:28.019Z,87.62
2023-05-23T22:11:54.586Z,87.37
2023-05-23T22:14:21.557Z,87.76
2023-05-23T22:16:50.041Z,86.18
2023-05-23T22:19:19.901Z,86.11
2023-05-23T22:21:47.225Z,86.57
2023-05-23T22:24:13.841Z,86.96
2023-05-23T22:26:40.415Z,86.13
2023-05-23T22:29:07.206Z,85.03
2023-05-23T22:31:35.453Z,85.27
2023-05-23T22:34:02.240Z,85.21
2023-05-23T22:36:29.012Z,85.30
2023-05-23T22:38:56.209Z,84.96
2023-05-23T22:41:23.588Z,83.64
2023-05-23T22:43:50.638Z,84.45
2023-05-23T22:46:17.377Z,84.26
2023-05-23T22:48:44.965Z,84.55
2023-05-23T22:51:13.291Z,81.94
2023-05-23T22:53:39.958Z,81.51
2023-05-23T22:56:06.780Z,80.84
2023-05-23T22:58:33.420Z,80.49
2023-05-23T23:00:59.970Z,80.57
2023-05-23T23:03:26.744Z,80.92
2023-05-23T23:05:53.364Z,80.18
2023-05-23T23:08:19.962Z,79.27
2023-05-23T23:10:46.755Z,79.48
2023-05-23T23:13:16.095Z,78.02
2023-05-23T23:15:43.080Z,79.22
2023-05-23T23:18:09.943Z,78.02
2023-05-23T23:20:36.686Z,78.34
2023-05-23T23:23:03.384Z,76.82
2023-05-23T23:25:30.702Z,77.80
2023-05-23T23:27:57.253Z,76.71
2023-05-23T23:30:23.933Z,76.14
2023-05-23T23:32:50.563Z,76.65
2023-05-23T23:35:17.194Z,75.96
2023-05-23T23:37:43.938Z,75.96
2023-05-23T23:40:11.116Z,75.79
2023-05-23T23:42:37.638Z,75.78
2023-05-23T23:45:05.059Z,76.33
2023-05-23T23:47:32.600Z,77.27
2023-05-23T23:49:59.243Z,77.64
2023-05-23T23:52:26.069Z,75.70
2023-05-23T23:54:52.784Z,75.72
2023-05-23T23:57:19.445Z,75.83
2023-05-23T23:59:46.125Z,74.82
